Station: Leigh Creek

  Atmospheric Gas Attenuation - ITU Rec 676-11   --------------- db/100km ---------------
Date Time Temp RH % AH g/m3 Dew Point Wind Direction Speed kph Gust kph Barometer mB Rainfall Since 9am 24GHz 47GHz 76GHz 122GHz 134GHz 241GHz
03 08:40 26.1 29 7.1 6.7 28 32 1015.5 0 15.9 20.7 29.3 76.6 68.0 233.5
03 08:30 25.6 29 6.9 6.3 30 39 1015.3 0 15.5 20.5 28.8 75.3 66.3 227.4
03 08:20 24.8 30 6.83 6.1 30 32 1015.3 0 15.4 20.6 28.9 75.4 66.2 226.9
03 08:10 24.3 32 7.08 6.6 30 33 1015.1 0 15.9 21.0 29.9 78.0 69.3 237.8
03 08:00 24 33 7.18 6.7 28 41 1014.9 0 16.1 21.2 30.3 79.2 70.6 242.4
03 07:50 23.4 35 7.36 7.1 20 24 1015.2 0 16.5 21.6 31.1 81.4 73.2 251.3
03 07:40 23 36 7.4 7.1 32 35 1014.9 0 16.6 21.8 31.4 82.1 74.0 254.0
03 07:30 22.5 37 7.39 7.1 33 43 1014.7 0 16.6 21.9 31.6 82.5 74.3 255.1
03 07:20 22.1 38 7.42 7.1 35 43 1014.6 0 16.7 22.0 31.8 83.2 75.0 257.5
03 07:10 21.8 39 7.48 7.2 39 44 1014.5 0 16.9 22.1 32.1 84.1 76.0 260.8
03 07:00 21.7 41 7.82 7.9 35 46 1014.2 0 17.6 22.6 33.3 87.3 79.9 274.8
03 06:50 21.6 40 7.59 7.4 32 37 1014.5 0 17.1 22.3 32.6 85.3 77.4 265.9
03 06:40 21.5 39 7.35 7 35 39 1014.2 0 16.6 22.0 31.8 83.1 74.7 256.5
03 06:30 21.5 39 7.35 7 30 37 1014.2 0 16.6 22.0 31.8 83.1 74.7 256.5
03 06:20 21.7 37 7.06 6.4 26 30 1014.2 0 16.0 21.6 30.7 80.3 71.3 244.4
03 06:10 21.8 36 6.91 6.1 28 32 1014.2 0 15.7 21.3 30.2 78.8 69.5 238.2
03 06:00 21.9 33 6.37 4.9 22 30 1014 0 14.5 20.6 28.3 73.9 63.5 217.0
03 05:50 22.2 32 6.28 4.7 22 24 1013.7 0 14.3 20.4 27.9 72.8 62.2 212.7
03 05:40 22.3 36 7.11 6.5 17 20 1013.6 0 16.1 21.5 30.6 80.1 71.3 244.5
03 05:30 22.3 37 7.31 6.9 17 20 1013.4 0 16.5 21.7 31.3 81.9 73.5 252.3
03 05:20 22.3 39 7.7 7.7 15 17 1013.5 0 17.3 22.3 32.7 85.5 77.9 267.8
03 05:00 22.1 38 7.42 7.1 20 30 1013.3 0 16.7 21.9 31.8 83.1 74.9 257.2
03 04:50 22 38 7.37 7 19 24 1013.5 0 16.6 21.9 31.6 82.8 74.5 255.6
03 04:40 22.2 39 7.66 7.6 32 39 1013.4 0 17.2 22.3 32.6 85.2 77.6 266.5
03 04:30 22.4 43 8.54 9.2 28 39 1013.2 0 19.1 23.5 35.5 93.2 87.5 301.4
03 04:20 22.7 43 8.69 9.5 26 30 1013.3 0 19.4 23.6 36.0 94.3 88.9 306.5
03 04:10 22.9 43 8.79 9.7 22 28 1013.2 0 19.6 23.7 36.2 95.0 89.9 309.8
03 04:00 23.2 43 8.94 9.9 32 41 1012.9 0 19.9 23.8 36.6 96.1 91.3 314.8
03 03:50 23.5 44 9.3 10.6 33 39 1012.9 0 20.6 24.3 37.8 99.2 95.2 328.5
03 03:40 23.7 44 9.41 10.7 30 33 1012.9 0 20.8 24.4 38.1 100.0 96.3 332.2
03 03:30 24 44 9.57 11 32 41 1012.8 0 21.1 24.5 38.5 101.1 97.8 337.6
03 03:20 23.3 47 9.83 11.4 24 28 1013.1 0 21.7 25.1 39.8 104.6 101.8 351.6
03 03:10 22.6 47 9.44 10.7 9 11 1013.3 0 20.9 24.7 38.7 101.7 98.0 338.2
03 03:00 22.8 46 9.35 10.6 13 20 1013.2 0 20.7 24.5 38.3 100.5 96.7 333.5
03 02:50 22.6 47 9.44 10.7 11 15 1013.3 0 20.9 24.7 38.7 101.7 98.0 338.2
03 02:40 22.7 47 9.5 10.8 15 15 1013.2 0 21.1 24.8 38.9 102.1 98.6 340.3
03 02:30 22.5 47 9.39 10.6 22 28 1013.3 0 20.8 24.7 38.6 101.3 97.5 336.5
03 02:20 22.4 47 9.33 10.5 20 24 1013.4 0 20.7 24.6 38.4 100.9 96.9 334.4
03 02:10 22.3 47 9.28 10.5 28 30 1013.4 0 20.6 24.6 38.3 100.5 96.4 332.7
03 02:00 22.4 48 9.53 10.9 32 39 1013.3 0 21.1 24.9 39.1 102.8 99.3 342.8
03 01:50 22.6 48 9.64 11 26 33 1013.4 0 21.4 25.0 39.5 103.7 100.4 346.7
03 01:40 22.7 48 9.7 11.1 28 32 1013.6 0 21.5 25.1 39.6 104.1 101.0 348.9
03 01:30 23 48 9.87 11.4 26 32 1013.6 0 21.8 25.3 40.1 105.4 102.7 354.8
03 01:20 23.1 49 10.13 11.8 22 24 1013.7 0 22.4 25.6 41.0 107.9 105.8 365.5
03 01:10 23.5 48 10.15 11.9 22 24 1013.9 0 22.4 25.6 40.9 107.6 105.5 364.6
03 01:00 23.7 47 10.05 12 19 26 1014 0 22.2 25.4 40.5 106.3 104.0 359.4
03 00:50 23.9 48 10.38 12.2 20 26 1014.1 0 22.8 25.8 41.6 109.3 107.8 372.6
03 00:40 24 47 10.23 12 22 30 1014.1 0 22.5 25.5 41.0 107.7 105.8 365.8
03 00:30 24.2 47 10.34 12.2 19 28 1014.4 0 22.7 25.7 41.3 108.6 106.9 369.6
03 00:20 24.5 46 10.29 12.1 17 20 1014.6 0 22.6 25.5 41.0 107.7 105.9 366.2
03 00:10 24.6 46 10.35 12.2 20 26 1014.7 0 22.7 25.6 41.1 108.2 106.5 368.3
03 00:00 24.6 46 10.35 12.2 24 33 1014.6 0 22.7 25.6 41.1 108.1 106.5 368.3
02 23:50 25 44 10.13 11.9 28 32 1014.8 0 22.3 25.1 40.1 105.5 103.4 357.3
02 23:40 25.3 43 10.07 11.8 26 28 1014.9 0 22.1 25.0 39.8 104.5 102.3 353.5
02 23:30 25.5 41 9.71 11.3 22 30 1014.9 0 21.4 24.4 38.4 100.8 97.8 337.7
02 23:20 25.9 39 9.44 10.9 22 28 1014.9 0 20.8 23.9 37.2 97.8 94.2 325.1
02 23:10 26.2 37 9.11 10.4 24 30 1014.9 0 20.1 23.4 36.0 94.4 90.0 310.6
02 23:00 26.6 36 9.06 10.3 28 35 1014.6 0 19.9 23.2 35.6 93.4 89.0 307.1
02 22:50 26.8 36 9.16 10.5 22 26 1014.6 0 20.1 23.3 35.9 94.1 89.9 310.3
02 22:40 27 35 9.01 10.2 24 28 1014.6 0 19.8 23.0 35.3 92.5 88.0 303.6
02 22:30 27.4 34 8.95 10.2 22 32 1014.4 0 19.7 22.8 34.9 91.5 86.9 299.7
02 22:20 27.2 35 9.11 10.4 22 24 1014.3 0 20.0 23.1 35.5 93.2 88.9 306.7
02 22:10 27.3 35 9.16 10.5 17 19 1014.2 0 20.1 23.1 35.6 93.5 89.3 308.3
02 22:00 27.5 34 9 10.2 17 20 1014.1 0 19.8 22.9 35.0 91.8 87.3 301.2
02 21:50 27.8 34 9.15 10.5 19 20 1014.1 0 20.1 23.0 35.4 92.8 88.6 306.0
02 21:40 27.9 35 9.47 11 24 26 1014 0 20.7 23.4 36.4 95.6 92.1 318.2
02 21:30 28.1 35 9.57 11.2 26 32 1014 0 20.9 23.5 36.7 96.3 93.0 321.3
02 21:20 28.3 35 9.68 11.4 20 28 1014 0 21.1 23.6 37.0 97.1 94.0 324.9
02 21:10 28.5 35 9.78 11.6 28 35 1013.8 0 21.3 23.7 37.2 97.7 94.9 328.0
02 21:00 28.7 34 9.61 11.3 35 44 1013.6 0 21.0 23.4 36.5 95.9 92.7 320.4
02 20:50 29 33 9.48 11.1 35 41 1013.5 0 20.7 23.1 35.9 94.4 90.9 314.2
02 20:40 29.5 32 9.45 11.1 35 43 1013.3 0 20.6 23.0 35.6 93.5 90.0 311.1
02 20:30 30.8 30 9.5 11.2 26 39 1012.9 0 20.7 22.7 35.2 92.5 89.1 308.0
02 20:20 31.2 29 9.38 11.1 22 28 1012.8 0 20.4 22.4 34.7 91.0 87.4 302.0
02 20:10 31.4 28 9.16 10.7 20 26 1012.6 0 19.9 22.1 33.8 88.8 84.8 293.0
02 20:00 31.9 27 9.07 10.6 20 26 1012.4 0 19.7 21.8 33.4 87.5 83.3 287.8
02 19:50 32 27 9.12 10.7 24 28 1012.4 0 19.8 21.9 33.5 87.8 83.8 289.3
02 19:40 32.2 28 9.56 11.4 20 24 1012.5 0 20.7 22.4 34.8 91.4 88.2 305.0
02 19:30 32.7 28 9.81 11.8 24 37 1012.4 0 21.2 22.6 35.4 93.0 90.3 312.5
02 19:20 32.8 27 9.51 11.3 30 33 1012.3 0 20.6 22.2 34.4 90.3 87.0 300.9
02 19:10 33.1 26 9.31 11 30 39 1012.2 0 20.2 21.9 33.6 88.3 84.6 292.4
02 19:00 33.4 27 9.82 11.9 32 46 1012.1 0 21.2 22.5 35.1 92.3 89.6 310.1
02 18:50 33.4 27 9.82 11.9 41 48 1012 0 21.2 22.5 35.1 92.3 89.6 310.1
02 18:40 34.4 24 9.2 10.9 24 32 1011.9 0 19.9 21.4 32.8 86.0 82.1 283.9
02 18:30 34.5 23 8.86 10.4 32 43 1011.6 0 19.2 21.0 31.7 83.1 78.6 271.4
02 18:20 34.6 23 8.91 10.4 33 43 1011.5 0 19.3 21.0 31.8 83.4 79.0 272.8
02 18:10 35.4 21 8.48 9.7 30 37 1011.4 0 18.4 20.3 30.2 79.1 73.9 255.2
02 18:00 35.7 21 8.61 10 33 46 1011.2 0 18.6 20.4 30.4 79.8 74.9 258.7
02 17:50 35.5 21 8.53 9.8 35 43 1011.2 0 18.5 20.3 30.3 79.4 74.3 256.6
02 17:40 35.8 22 9.07 10.8 44 50 1010.9 0 19.5 20.9 31.8 83.4 79.4 274.4
02 17:30 37 16 7.02 7 35 48 1010.9 0 15.3 18.2 25.4 66.4 58.7 201.9
02 17:20 37.7 14 6.36 5.6 30 35 1010.7 0 14.0 17.4 23.4 61.1 52.3 179.3
02 17:10 38.1 11 5.1 2.5 39 48 1010.5 0 11.4 15.9 20.0 51.9 41.1 139.9
02 17:00 38.3 12 5.63 3.9 28 50 1010.6 0 12.5 16.5 21.3 55.5 45.6 155.6
02 16:50 37.9 11 5.05 2.4 33 39 1010.9 0 11.3 15.9 19.9 51.7 40.8 138.8
02 16:40 38.5 12 5.68 4.1 26 33 1010.9 0 12.6 16.5 21.4 55.7 45.9 156.8
02 16:30 38.8 11 5.29 3.1 30 44 1010.9 0 11.8 16.0 20.3 52.8 42.4 144.5
02 16:20 38.4 12 5.65 4 26 33 1010.9 0 12.5 16.5 21.4 55.6 45.7 156.1
02 16:10 38.1 12 5.57 3.8 37 46 1010.9 0 12.4 16.4 21.2 55.2 45.2 154.2
02 16:00 38.5 13 6.16 5.2 35 48 1010.8 0 13.5 17.0 22.7 59.1 50.1 171.5

Last Refresh: 03-Dec-2021 08:44:28

Bureau of Meteorology